sensor_id;sensor_type;location;lat;lon;timestamp;pressure;altitude;pressure_sealevel;temperature;humidity
52105;BME280;38103;42.776;23.112;2023-10-19T00:00:54;94037.75;;;5.69;100.00
52105;BME280;38103;42.776;23.112;2023-10-19T00:03:24;94028.06;;;5.63;100.00
52105;BME280;38103;42.776;23.112;2023-10-19T00:05:55;94027.25;;;5.69;100.00
52105;BME280;38103;42.776;23.112;2023-10-19T00:08:21;94029.69;;;5.64;100.00
52105;BME280;38103;42.776;23.112;2023-10-19T00:10:49;94014.53;;;5.53;100.00
52105;BME280;38103;42.776;23.112;2023-10-19T00:13:26;94023.19;;;5.46;100.00
52105;BME280;38103;42.776;23.112;2023-10-19T00:15:53;94018.34;;;5.30;100.00
52105;BME280;38103;42.776;23.112;2023-10-19T00:18:19;94019.97;;;5.31;100.00
52105;BME280;38103;42.776;23.112;2023-10-19T00:20:50;94013.06;;;5.02;100.00
52105;BME280;38103;42.776;23.112;2023-10-19T00:23:24;94012.84;;;5.11;100.00
52105;BME280;38103;42.776;23.112;2023-10-19T00:25:55;94015.47;;;5.11;100.00
52105;BME280;38103;42.776;23.112;2023-10-19T00:28:20;94014.25;;;5.07;100.00
52105;BME280;38103;42.776;23.112;2023-10-19T00:30:48;94004.59;;;5.14;100.00
52105;BME280;38103;42.776;23.112;2023-10-19T00:33:15;94003.59;;;5.15;100.00
52105;BME280;38103;42.776;23.112;2023-10-19T00:35:46;94011.22;;;4.96;100.00
52105;BME280;38103;42.776;23.112;2023-10-19T00:38:44;94007.34;;;4.85;100.00
52105;BME280;38103;42.776;23.112;2023-10-19T00:41:16;94008.13;;;4.72;100.00
52105;BME280;38103;42.776;23.112;2023-10-19T00:43:48;93670.31;;;2.36;100.00
52105;BME280;38103;42.776;23.112;2023-10-19T00:46:18;94005.25;;;4.60;100.00
52105;BME280;38103;42.776;23.112;2023-10-19T00:48:47;94006.94;;;4.82;100.00
52105;BME280;38103;42.776;23.112;2023-10-19T00:51:14;94008.53;;;4.76;100.00
52105;BME280;38103;42.776;23.112;2023-10-19T00:54:29;94005.31;;;4.80;100.00
52105;BME280;38103;42.776;23.112;2023-10-19T00:57:03;94003.28;;;4.69;100.00
52105;BME280;38103;42.776;23.112;2023-10-19T00:59:39;94007.50;;;4.70;100.00
52105;BME280;38103;42.776;23.112;2023-10-19T01:02:34;94011.97;;;4.76;100.00
52105;BME280;38103;42.776;23.112;2023-10-19T01:04:59;94000.00;;;4.53;100.00
52105;BME280;38103;42.776;23.112;2023-10-19T01:07:27;94018.16;;;4.62;100.00
52105;BME280;38103;42.776;23.112;2023-10-19T01:10:00;94008.41;;;4.49;100.00
52105;BME280;38103;42.776;23.112;2023-10-19T01:12:27;94018.03;;;4.34;100.00
52105;BME280;38103;42.776;23.112;2023-10-19T01:17:44;93987.25;;;4.01;100.00
52105;BME280;38103;42.776;23.112;2023-10-19T01:20:14;94005.81;;;4.06;100.00
52105;BME280;38103;42.776;23.112;2023-10-19T01:22:55;93996.66;;;3.88;100.00
52105;BME280;38103;42.776;23.112;2023-10-19T01:28:08;94002.41;;;3.77;100.00
52105;BME280;38103;42.776;23.112;2023-10-19T01:30:35;94006.88;;;3.83;100.00
52105;BME280;38103;42.776;23.112;2023-10-19T01:33:02;94011.09;;;3.84;100.00
52105;BME280;38103;42.776;23.112;2023-10-19T01:35:29;94014.09;;;3.81;100.00
52105;BME280;38103;42.776;23.112;2023-10-19T01:38:14;94021.31;;;3.79;100.00
52105;BME280;38103;42.776;23.112;2023-10-19T01:40:40;94014.50;;;3.85;100.00
52105;BME280;38103;42.776;23.112;2023-10-19T01:43:14;94003.25;;;3.84;100.00
52105;BME280;38103;42.776;23.112;2023-10-19T01:45:47;94012.47;;;3.80;100.00
52105;BME280;38103;42.776;23.112;2023-10-19T01:48:12;94016.84;;;3.73;100.00
52105;BME280;38103;42.776;23.112;2023-10-19T01:50:39;94015.19;;;3.65;100.00
52105;BME280;38103;42.776;23.112;2023-10-19T01:53:04;94008.66;;;3.54;100.00
52105;BME280;38103;42.776;23.112;2023-10-19T01:55:38;93997.72;;;3.43;100.00
52105;BME280;38103;42.776;23.112;2023-10-19T01:58:03;94006.56;;;3.42;100.00
52105;BME280;38103;42.776;23.112;2023-10-19T02:00:29;94010.53;;;3.38;100.00
52105;BME280;38103;42.776;23.112;2023-10-19T02:02:54;94005.31;;;3.38;100.00
52105;BME280;38103;42.776;23.112;2023-10-19T02:05:20;94004.22;;;3.26;100.00
52105;BME280;38103;42.776;23.112;2023-10-19T02:07:47;94008.44;;;3.27;100.00
52105;BME280;38103;42.776;23.112;2023-10-19T02:10:12;94020.38;;;3.36;100.00
52105;BME280;38103;42.776;23.112;2023-10-19T02:12:38;94011.03;;;3.49;100.00
52105;BME280;38103;42.776;23.112;2023-10-19T02:15:08;94004.81;;;3.50;100.00
52105;BME280;38103;42.776;23.112;2023-10-19T02:17:33;94001.84;;;3.53;100.00
52105;BME280;38103;42.776;23.112;2023-10-19T02:19:59;93994.84;;;3.60;100.00
52105;BME280;38103;42.776;23.112;2023-10-19T02:22:24;93997.50;;;3.67;100.00
52105;BME280;38103;42.776;23.112;2023-10-19T02:24:50;93998.31;;;3.67;100.00
52105;BME280;38103;42.776;23.112;2023-10-19T02:27:15;93980.16;;;3.59;100.00
52105;BME280;38103;42.776;23.112;2023-10-19T02:29:40;94000.97;;;3.74;100.00
52105;BME280;38103;42.776;23.112;2023-10-19T02:32:07;94003.41;;;3.76;100.00
52105;BME280;38103;42.776;23.112;2023-10-19T02:34:32;93986.44;;;3.65;100.00
52105;BME280;38103;42.776;23.112;2023-10-19T02:37:00;94004.63;;;3.80;100.00
52105;BME280;38103;42.776;23.112;2023-10-19T02:39:26;94003.25;;;3.84;100.00
52105;BME280;38103;42.776;23.112;2023-10-19T02:41:53;94009.88;;;3.80;100.00
52105;BME280;38103;42.776;23.112;2023-10-19T02:44:20;94008.00;;;3.74;100.00
52105;BME280;38103;42.776;23.112;2023-10-19T02:46:51;93993.47;;;3.64;100.00
52105;BME280;38103;42.776;23.112;2023-10-19T02:49:19;93986.63;;;3.63;100.00
52105;BME280;38103;42.776;23.112;2023-10-19T02:51:49;93999.38;;;3.73;100.00
52105;BME280;38103;42.776;23.112;2023-10-19T02:54:21;93995.09;;;3.65;100.00
52105;BME280;38103;42.776;23.112;2023-10-19T02:56:54;93995.84;;;3.59;100.00
52105;BME280;38103;42.776;23.112;2023-10-19T02:59:23;93997.84;;;3.57;100.00
52105;BME280;38103;42.776;23.112;2023-10-19T03:01:56;93999.06;;;3.61;100.00
52105;BME280;38103;42.776;23.112;2023-10-19T03:04:36;93979.78;;;3.62;100.00
52105;BME280;38103;42.776;23.112;2023-10-19T03:07:03;93992.72;;;3.71;100.00
52105;BME280;38103;42.776;23.112;2023-10-19T03:09:29;93991.47;;;3.66;100.00
52105;BME280;38103;42.776;23.112;2023-10-19T03:11:56;93993.59;;;3.56;100.00
52105;BME280;38103;42.776;23.112;2023-10-19T03:14:35;93990.22;;;3.62;100.00
52105;BME280;38103;42.776;23.112;2023-10-19T03:17:00;93960.72;;;3.40;100.00
52105;BME280;38103;42.776;23.112;2023-10-19T03:19:26;93995.81;;;3.81;100.00
52105;BME280;38103;42.776;23.112;2023-10-19T03:21:52;93942.25;;;3.48;100.00
52105;BME280;38103;42.776;23.112;2023-10-19T03:24:18;93952.31;;;3.44;100.00
52105;BME280;38103;42.776;23.112;2023-10-19T03:27:08;93963.25;;;3.55;100.00
52105;BME280;38103;42.776;23.112;2023-10-19T03:29:50;93984.66;;;3.72;100.00
52105;BME280;38103;42.776;23.112;2023-10-19T03:32:20;93983.63;;;3.66;100.00
52105;BME280;38103;42.776;23.112;2023-10-19T03:34:51;93977.78;;;3.64;100.00
52105;BME280;38103;42.776;23.112;2023-10-19T03:37:20;93976.22;;;3.70;100.00
52105;BME280;38103;42.776;23.112;2023-10-19T03:39:47;93976.47;;;3.53;100.00
52105;BME280;38103;42.776;23.112;2023-10-19T03:42:13;93978.63;;;3.72;100.00
52105;BME280;38103;42.776;23.112;2023-10-19T03:44:39;93977.72;;;3.86;100.00
52105;BME280;38103;42.776;23.112;2023-10-19T03:47:31;93981.13;;;3.87;100.00
52105;BME280;38103;42.776;23.112;2023-10-19T03:50:04;93987.97;;;3.81;100.00
52105;BME280;38103;42.776;23.112;2023-10-19T03:52:35;93948.91;;;3.51;100.00
52105;BME280;38103;42.776;23.112;2023-10-19T03:55:03;93979.03;;;3.68;100.00
52105;BME280;38103;42.776;23.112;2023-10-19T03:57:36;93980.84;;;3.75;100.00
52105;BME280;38103;42.776;23.112;2023-10-19T04:00:07;93936.78;;;3.43;100.00
52105;BME280;38103;42.776;23.112;2023-10-19T04:02:36;93983.28;;;3.76;100.00
52105;BME280;38103;42.776;23.112;2023-10-19T04:05:03;93981.84;;;3.74;100.00
52105;BME280;38103;42.776;23.112;2023-10-19T04:07:29;93984.56;;;3.87;100.00
52105;BME280;38103;42.776;23.112;2023-10-19T04:09:57;93982.50;;;4.11;100.00
52105;BME280;38103;42.776;23.112;2023-10-19T04:12:31;93977.44;;;4.10;100.00
52105;BME280;38103;42.776;23.112;2023-10-19T04:14:57;93978.25;;;4.10;100.00
52105;BME280;38103;42.776;23.112;2023-10-19T04:17:23;93970.41;;;4.10;100.00
52105;BME280;38103;42.776;23.112;2023-10-19T04:19:49;93966.94;;;4.03;100.00
52105;BME280;38103;42.776;23.112;2023-10-19T04:22:16;93921.94;;;3.79;100.00
52105;BME280;38103;42.776;23.112;2023-10-19T04:24:47;93959.88;;;3.97;100.00
52105;BME280;38103;42.776;23.112;2023-10-19T04:27:13;93923.41;;;3.88;100.00
52105;BME280;38103;42.776;23.112;2023-10-19T04:29:38;93958.25;;;3.96;100.00
52105;BME280;38103;42.776;23.112;2023-10-19T04:32:06;93955.88;;;4.01;100.00
52105;BME280;38103;42.776;23.112;2023-10-19T04:34:32;93948.63;;;4.03;100.00
52105;BME280;38103;42.776;23.112;2023-10-19T04:36:57;93943.41;;;4.03;100.00
52105;BME280;38103;42.776;23.112;2023-10-19T04:39:23;93949.81;;;3.94;100.00
52105;BME280;38103;42.776;23.112;2023-10-19T04:41:49;93944.94;;;3.90;100.00
52105;BME280;38103;42.776;23.112;2023-10-19T04:44:15;93941.41;;;4.05;100.00
52105;BME280;38103;42.776;23.112;2023-10-19T04:46:41;93944.63;;;4.07;100.00
52105;BME280;38103;42.776;23.112;2023-10-19T04:49:07;93914.25;;;4.06;100.00
52105;BME280;38103;42.776;23.112;2023-10-19T04:51:32;93911.94;;;3.89;100.00
52105;BME280;38103;42.776;23.112;2023-10-19T04:53:59;93952.38;;;4.29;100.00
52105;BME280;38103;42.776;23.112;2023-10-19T04:56:25;93949.53;;;4.24;100.00
52105;BME280;38103;42.776;23.112;2023-10-19T04:58:50;93949.53;;;4.24;100.00
52105;BME280;38103;42.776;23.112;2023-10-19T05:01:16;93942.69;;;4.23;100.00
52105;BME280;38103;42.776;23.112;2023-10-19T05:03:41;93942.28;;;4.26;100.00
52105;BME280;38103;42.776;23.112;2023-10-19T05:06:07;93955.22;;;4.34;100.00
52105;BME280;38103;42.776;23.112;2023-10-19T05:08:35;93952.00;;;4.32;100.00
52105;BME280;38103;42.776;23.112;2023-10-19T05:11:00;93953.66;;;4.54;100.00
52105;BME280;38103;42.776;23.112;2023-10-19T05:13:26;93950.88;;;4.55;100.00
52105;BME280;38103;42.776;23.112;2023-10-19T05:15:55;93908.44;;;4.18;100.00
52105;BME280;38103;42.776;23.112;2023-10-19T05:18:22;93951.34;;;4.93;100.00
52105;BME280;38103;42.776;23.112;2023-10-19T05:20:48;93960.66;;;5.30;100.00
52105;BME280;38103;42.776;23.112;2023-10-19T05:23:13;93959.22;;;5.75;100.00
52105;BME280;38103;42.776;23.112;2023-10-19T05:25:39;93940.03;;;5.95;100.00
52105;BME280;38103;42.776;23.112;2023-10-19T05:28:05;93962.59;;;6.23;100.00
52105;BME280;38103;42.776;23.112;2023-10-19T05:30:34;93963.44;;;6.63;100.00
52105;BME280;38103;42.776;23.112;2023-10-19T05:33:01;93955.38;;;7.03;100.00
52105;BME280;38103;42.776;23.112;2023-10-19T05:35:31;93931.44;;;7.12;100.00
52105;BME280;38103;42.776;23.112;2023-10-19T05:38:00;93960.28;;;7.51;100.00
52105;BME280;38103;42.776;23.112;2023-10-19T05:40:26;93934.81;;;7.45;100.00
52105;BME280;38103;42.776;23.112;2023-10-19T05:42:58;93954.09;;;7.64;100.00
52105;BME280;38103;42.776;23.112;2023-10-19T05:45:24;93900.84;;;7.43;100.00
52105;BME280;38103;42.776;23.112;2023-10-19T05:47:50;93961.28;;;7.76;100.00
52105;BME280;38103;42.776;23.112;2023-10-19T05:50:15;93965.41;;;8.09;100.00
52105;BME280;38103;42.776;23.112;2023-10-19T05:52:42;93962.44;;;8.05;100.00
52105;BME280;38103;42.776;23.112;2023-10-19T05:55:09;93968.66;;;8.11;100.00
52105;BME280;38103;42.776;23.112;2023-10-19T05:57:35;93923.16;;;7.85;100.00
52105;BME280;38103;42.776;23.112;2023-10-19T06:00:01;93978.47;;;8.23;100.00
52105;BME280;38103;42.776;23.112;2023-10-19T06:02:30;93971.44;;;8.16;100.00
52105;BME280;38103;42.776;23.112;2023-10-19T06:04:55;93962.34;;;7.93;100.00
52105;BME280;38103;42.776;23.112;2023-10-19T06:07:22;93962.06;;;7.83;100.00
52105;BME280;38103;42.776;23.112;2023-10-19T06:09:50;93944.09;;;7.47;100.00
52105;BME280;38103;42.776;23.112;2023-10-19T06:12:15;93964.69;;;7.57;100.00
52105;BME280;38103;42.776;23.112;2023-10-19T06:14:40;93966.28;;;7.58;100.00
52105;BME280;38103;42.776;23.112;2023-10-19T06:17:06;93971.56;;;7.58;100.00
52105;BME280;38103;42.776;23.112;2023-10-19T06:19:31;93967.44;;;7.44;100.00
52105;BME280;38103;42.776;23.112;2023-10-19T06:21:57;93975.38;;;7.37;100.00
52105;BME280;38103;42.776;23.112;2023-10-19T06:24:22;93974.75;;;7.35;100.00
52105;BME280;38103;42.776;23.112;2023-10-19T06:26:48;93973.34;;;7.39;100.00
52105;BME280;38103;42.776;23.112;2023-10-19T06:29:13;93973.41;;;7.25;100.00
52105;BME280;38103;42.776;23.112;2023-10-19T06:31:38;93932.56;;;6.97;100.00
52105;BME280;38103;42.776;23.112;2023-10-19T06:34:04;93974.25;;;7.19;100.00
52105;BME280;38103;42.776;23.112;2023-10-19T06:36:29;93975.03;;;7.26;100.00
52105;BME280;38103;42.776;23.112;2023-10-19T06:38:55;93972.13;;;7.35;100.00
52105;BME280;38103;42.776;23.112;2023-10-19T06:41:20;93955.13;;;7.37;100.00
52105;BME280;38103;42.776;23.112;2023-10-19T06:43:47;93959.25;;;7.26;100.00
52105;BME280;38103;42.776;23.112;2023-10-19T06:46:12;93931.75;;;7.22;100.00
52105;BME280;38103;42.776;23.112;2023-10-19T06:48:39;93951.75;;;7.56;100.00
52105;BME280;38103;42.776;23.112;2023-10-19T06:51:04;93956.16;;;7.81;100.00
52105;BME280;38103;42.776;23.112;2023-10-19T06:53:31;93963.63;;;7.84;100.00
52105;BME280;38103;42.776;23.112;2023-10-19T06:55:58;93968.06;;;8.09;100.00
52105;BME280;38103;42.776;23.112;2023-10-19T06:58:24;93940.28;;;8.13;100.00
52105;BME280;38103;42.776;23.112;2023-10-19T07:00:52;93970.00;;;8.40;100.00
52105;BME280;38103;42.776;23.112;2023-10-19T07:03:32;93973.78;;;8.44;100.00
52105;BME280;38103;42.776;23.112;2023-10-19T07:05:58;93963.97;;;8.51;100.00
52105;BME280;38103;42.776;23.112;2023-10-19T07:08:23;93926.31;;;8.32;100.00
52105;BME280;38103;42.776;23.112;2023-10-19T07:10:49;93970.88;;;7.89;100.00
52105;BME280;38103;42.776;23.112;2023-10-19T07:13:15;93977.38;;;7.86;100.00
52105;BME280;38103;42.776;23.112;2023-10-19T07:15:41;93966.44;;;7.89;100.00
52105;BME280;38103;42.776;23.112;2023-10-19T07:18:06;93970.16;;;7.81;100.00
52105;BME280;38103;42.776;23.112;2023-10-19T07:20:32;93944.16;;;7.66;100.00
52105;BME280;38103;42.776;23.112;2023-10-19T07:22:59;93958.38;;;7.84;100.00
52105;BME280;38103;42.776;23.112;2023-10-19T07:25:33;93995.81;;;8.31;100.00
52105;BME280;38103;42.776;23.112;2023-10-19T07:28:07;93987.34;;;8.47;100.00
52105;BME280;38103;42.776;23.112;2023-10-19T07:30:33;93975.47;;;8.57;100.00
52105;BME280;38103;42.776;23.112;2023-10-19T07:32:58;93990.19;;;8.65;100.00
52105;BME280;38103;42.776;23.112;2023-10-19T07:35:24;93988.72;;;8.69;100.00
52105;BME280;38103;42.776;23.112;2023-10-19T07:37:54;93993.75;;;8.52;100.00
52105;BME280;38103;42.776;23.112;2023-10-19T07:40:22;93994.56;;;8.52;100.00
52105;BME280;38103;42.776;23.112;2023-10-19T07:42:49;93955.13;;;8.26;100.00
52105;BME280;38103;42.776;23.112;2023-10-19T07:45:18;93987.38;;;8.41;100.00
52105;BME280;38103;42.776;23.112;2023-10-19T07:47:44;93990.34;;;8.70;100.00
52105;BME280;38103;42.776;23.112;2023-10-19T07:50:11;93993.47;;;9.10;100.00
52105;BME280;38103;42.776;23.112;2023-10-19T07:52:44;93991.53;;;9.60;100.00
52105;BME280;38103;42.776;23.112;2023-10-19T07:55:11;93988.50;;;9.99;100.00
52105;BME280;38103;42.776;23.112;2023-10-19T07:57:37;93985.00;;;10.47;100.00
52105;BME280;38103;42.776;23.112;2023-10-19T08:00:02;93983.47;;;10.75;100.00
52105;BME280;38103;42.776;23.112;2023-10-19T08:02:29;93958.34;;;10.60;100.00
52105;BME280;38103;42.776;23.112;2023-10-19T08:04:55;93973.94;;;11.03;100.00
52105;BME280;38103;42.776;23.112;2023-10-19T08:07:21;93952.00;;;11.20;100.00
52105;BME280;38103;42.776;23.112;2023-10-19T08:09:47;93976.44;;;11.57;100.00
52105;BME280;38103;42.776;23.112;2023-10-19T08:12:13;93967.44;;;11.58;100.00
52105;BME280;38103;42.776;23.112;2023-10-19T08:14:39;93977.06;;;11.64;100.00
52105;BME280;38103;42.776;23.112;2023-10-19T08:17:04;93972.41;;;11.89;100.00
52105;BME280;38103;42.776;23.112;2023-10-19T08:19:29;93966.91;;;12.30;100.00
52105;BME280;38103;42.776;23.112;2023-10-19T08:21:58;93960.09;;;12.17;100.00
52105;BME280;38103;42.776;23.112;2023-10-19T08:24:23;93958.75;;;12.14;100.00
52105;BME280;38103;42.776;23.112;2023-10-19T08:26:49;93965.81;;;11.91;100.00
52105;BME280;38103;42.776;23.112;2023-10-19T08:29:16;93951.63;;;12.37;100.00
52105;BME280;38103;42.776;23.112;2023-10-19T08:31:42;93956.63;;;12.79;100.00
52105;BME280;38103;42.776;23.112;2023-10-19T08:34:10;93950.72;;;12.71;100.00
52105;BME280;38103;42.776;23.112;2023-10-19T08:36:37;93957.00;;;12.88;100.00
52105;BME280;38103;42.776;23.112;2023-10-19T08:39:07;93955.53;;;13.02;100.00
52105;BME280;38103;42.776;23.112;2023-10-19T08:41:36;93968.66;;;13.14;100.00
52105;BME280;38103;42.776;23.112;2023-10-19T08:44:03;93960.97;;;13.13;100.00
52105;BME280;38103;42.776;23.112;2023-10-19T08:46:29;93951.63;;;12.82;100.00
52105;BME280;38103;42.776;23.112;2023-10-19T08:48:57;93960.63;;;12.81;100.00
52105;BME280;38103;42.776;23.112;2023-10-19T08:51:24;93920.13;;;12.41;100.00
52105;BME280;38103;42.776;23.112;2023-10-19T08:53:53;93949.34;;;12.69;100.00
52105;BME280;38103;42.776;23.112;2023-10-19T08:56:19;93942.88;;;12.59;100.00
52105;BME280;38103;42.776;23.112;2023-10-19T08:58:49;93933.59;;;12.84;100.00
52105;BME280;38103;42.776;23.112;2023-10-19T09:01:14;93894.53;;;12.52;100.00
52105;BME280;38103;42.776;23.112;2023-10-19T09:03:40;93922.78;;;12.91;100.00
52105;BME280;38103;42.776;23.112;2023-10-19T09:06:06;93922.59;;;12.98;100.00
52105;BME280;38103;42.776;23.112;2023-10-19T09:08:33;93919.19;;;12.75;100.00
52105;BME280;38103;42.776;23.112;2023-10-19T09:11:09;93924.22;;;12.26;100.00
52105;BME280;38103;42.776;23.112;2023-10-19T09:13:48;93928.38;;;12.45;100.00
52105;BME280;38103;42.776;23.112;2023-10-19T09:16:18;93925.13;;;12.37;100.00
52105;BME280;38103;42.776;23.112;2023-10-19T09:18:44;93932.50;;;12.35;100.00
52105;BME280;38103;42.776;23.112;2023-10-19T09:21:15;93933.44;;;12.24;100.00
52105;BME280;38103;42.776;23.112;2023-10-19T09:23:53;93920.81;;;12.31;100.00
52105;BME280;38103;42.776;23.112;2023-10-19T09:26:21;93924.84;;;12.16;100.00
52105;BME280;38103;42.776;23.112;2023-10-19T09:28:48;93918.28;;;12.02;100.00
52105;BME280;38103;42.776;23.112;2023-10-19T09:31:14;93913.91;;;12.30;100.00
52105;BME280;38103;42.776;23.112;2023-10-19T09:33:42;93903.28;;;12.30;100.00
52105;BME280;38103;42.776;23.112;2023-10-19T09:36:09;93902.59;;;12.40;100.00
52105;BME280;38103;42.776;23.112;2023-10-19T09:41:12;93900.69;;;12.35;100.00
52105;BME280;38103;42.776;23.112;2023-10-19T09:43:41;93906.56;;;12.37;100.00
52105;BME280;38103;42.776;23.112;2023-10-19T09:46:09;93907.88;;;12.57;100.00
52105;BME280;38103;42.776;23.112;2023-10-19T09:48:43;93908.72;;;12.40;100.00
52105;BME280;38103;42.776;23.112;2023-10-19T09:51:11;93893.41;;;12.48;100.00
52105;BME280;38103;42.776;23.112;2023-10-19T09:53:38;93902.94;;;12.44;100.00
52105;BME280;38103;42.776;23.112;2023-10-19T09:56:06;93900.75;;;12.63;100.00
52105;BME280;38103;42.776;23.112;2023-10-19T09:58:41;93891.69;;;12.87;100.00
52105;BME280;38103;42.776;23.112;2023-10-19T10:01:10;93896.19;;;12.58;100.00
52105;BME280;38103;42.776;23.112;2023-10-19T10:03:51;93884.88;;;12.91;100.00
52105;BME280;38103;42.776;23.112;2023-10-19T10:06:30;93875.84;;;12.92;100.00
52105;BME280;38103;42.776;23.112;2023-10-19T10:09:00;93884.44;;;13.04;100.00
52105;BME280;38103;42.776;23.112;2023-10-19T10:11:27;93868.22;;;13.01;100.00
52105;BME280;38103;42.776;23.112;2023-10-19T10:13:54;93869.66;;;12.86;100.00
52105;BME280;38103;42.776;23.112;2023-10-19T10:16:24;93867.09;;;13.24;100.00
52105;BME280;38103;42.776;23.112;2023-10-19T10:18:51;93864.56;;;13.40;100.00
52105;BME280;38103;42.776;23.112;2023-10-19T10:21:20;93858.34;;;13.62;100.00
52105;BME280;38103;42.776;23.112;2023-10-19T10:24:03;93851.81;;;13.80;100.00
52105;BME280;38103;42.776;23.112;2023-10-19T10:26:31;93819.09;;;13.69;100.00
52105;BME280;38103;42.776;23.112;2023-10-19T10:29:22;93832.44;;;13.85;100.00
52105;BME280;38103;42.776;23.112;2023-10-19T10:31:53;93832.59;;;14.16;100.00
52105;BME280;38103;42.776;23.112;2023-10-19T10:46:46;93798.13;;;15.68;96.88
52105;BME280;38103;42.776;23.112;2023-10-19T10:49:14;93791.81;;;15.22;89.17
52105;BME280;38103;42.776;23.112;2023-10-19T10:51:40;93788.59;;;15.41;86.47
52105;BME280;38103;42.776;23.112;2023-10-19T10:54:06;93785.91;;;15.46;85.00
52105;BME280;38103;42.776;23.112;2023-10-19T10:56:39;93772.56;;;15.57;82.65
52105;BME280;38103;42.776;23.112;2023-10-19T10:59:14;93772.31;;;15.48;80.72
52105;BME280;38103;42.776;23.112;2023-10-19T11:01:39;93770.97;;;15.61;80.27
52105;BME280;38103;42.776;23.112;2023-10-19T11:04:08;93774.66;;;15.65;77.80
52105;BME280;38103;42.776;23.112;2023-10-19T11:09:14;93770.94;;;15.71;76.55
52105;BME280;38103;42.776;23.112;2023-10-19T11:11:44;93763.47;;;15.73;74.50
52105;BME280;38103;42.776;23.112;2023-10-19T11:14:10;93755.16;;;15.80;75.89
52105;BME280;38103;42.776;23.112;2023-10-19T11:16:39;93727.50;;;15.71;75.59
52105;BME280;38103;42.776;23.112;2023-10-19T11:19:08;93740.53;;;15.72;74.06
52105;BME280;38103;42.776;23.112;2023-10-19T11:21:35;93710.72;;;15.60;73.54
52105;BME280;38103;42.776;23.112;2023-10-19T11:24:01;93717.81;;;15.85;75.90
52105;BME280;38103;42.776;23.112;2023-10-19T11:26:27;93729.22;;;16.07;72.60
52105;BME280;38103;42.776;23.112;2023-10-19T11:29:00;93731.31;;;16.15;72.87
52105;BME280;38103;42.776;23.112;2023-10-19T11:31:35;93731.78;;;16.28;72.31
52105;BME280;38103;42.776;23.112;2023-10-19T11:34:03;93722.13;;;16.37;71.25
52105;BME280;38103;42.776;23.112;2023-10-19T11:36:29;93727.13;;;16.44;72.42
52105;BME280;38103;42.776;23.112;2023-10-19T11:38:54;93734.94;;;16.35;70.31
52105;BME280;38103;42.776;23.112;2023-10-19T11:41:20;93722.03;;;16.48;69.20
52105;BME280;38103;42.776;23.112;2023-10-19T11:43:47;93715.50;;;16.29;71.20
52105;BME280;38103;42.776;23.112;2023-10-19T11:46:13;93731.63;;;16.54;71.04
52105;BME280;38103;42.776;23.112;2023-10-19T11:48:43;93740.09;;;16.61;69.62
52105;BME280;38103;42.776;23.112;2023-10-19T11:51:09;93733.63;;;16.68;69.53
52105;BME280;38103;42.776;23.112;2023-10-19T11:53:39;93724.25;;;16.35;69.75
52105;BME280;38103;42.776;23.112;2023-10-19T11:56:10;93722.44;;;16.66;71.20
52105;BME280;38103;42.776;23.112;2023-10-19T11:58:37;93707.97;;;16.77;70.33
52105;BME280;38103;42.776;23.112;2023-10-19T12:01:05;93705.38;;;16.96;68.99
52105;BME280;38103;42.776;23.112;2023-10-19T12:03:34;93697.06;;;17.03;68.52
52105;BME280;38103;42.776;23.112;2023-10-19T12:06:05;93711.72;;;17.36;68.34
52105;BME280;38103;42.776;23.112;2023-10-19T12:08:34;93709.56;;;17.62;66.91
52105;BME280;38103;42.776;23.112;2023-10-19T12:11:01;93693.94;;;17.94;65.90
52105;BME280;38103;42.776;23.112;2023-10-19T12:13:28;93691.97;;;18.19;65.24
52105;BME280;38103;42.776;23.112;2023-10-19T12:15:54;93687.91;;;18.47;63.44
52105;BME280;38103;42.776;23.112;2023-10-19T12:18:20;93675.19;;;18.72;61.36
52105;BME280;38103;42.776;23.112;2023-10-19T12:20:46;93685.22;;;18.80;60.90
52105;BME280;38103;42.776;23.112;2023-10-19T12:23:13;93680.06;;;18.84;59.12
52105;BME280;38103;42.776;23.112;2023-10-19T12:25:39;93680.69;;;18.95;59.28
52105;BME280;38103;42.776;23.112;2023-10-19T12:28:05;93682.69;;;19.03;58.69
52105;BME280;38103;42.776;23.112;2023-10-19T12:30:30;93628.28;;;18.74;58.95
52105;BME280;38103;42.776;23.112;2023-10-19T12:33:04;93674.75;;;19.12;58.29
52105;BME280;38103;42.776;23.112;2023-10-19T12:35:40;93680.59;;;19.34;58.43
52105;BME280;38103;42.776;23.112;2023-10-19T12:38:17;93673.22;;;19.53;57.35
52105;BME280;38103;42.776;23.112;2023-10-19T12:40:47;93653.38;;;19.26;56.28
52105;BME280;38103;42.776;23.112;2023-10-19T12:43:13;93674.84;;;19.54;56.50
52105;BME280;38103;42.776;23.112;2023-10-19T12:45:39;93676.81;;;19.35;56.25
52105;BME280;38103;42.776;23.112;2023-10-19T12:48:06;93666.00;;;19.40;56.35
52105;BME280;38103;42.776;23.112;2023-10-19T12:50:34;93675.03;;;19.44;57.70
52105;BME280;38103;42.776;23.112;2023-10-19T12:52:59;93661.44;;;19.54;56.91
52105;BME280;38103;42.776;23.112;2023-10-19T12:55:25;93668.19;;;19.66;56.88
52105;BME280;38103;42.776;23.112;2023-10-19T12:57:53;93625.41;;;19.33;57.46
52105;BME280;38103;42.776;23.112;2023-10-19T13:00:18;93643.44;;;19.41;58.14
52105;BME280;38103;42.776;23.112;2023-10-19T13:02:51;93660.34;;;19.27;57.75
52105;BME280;38103;42.776;23.112;2023-10-19T13:05:28;93640.66;;;19.18;57.89
52105;BME280;38103;42.776;23.112;2023-10-19T13:07:56;93646.09;;;19.13;58.82
52105;BME280;38103;42.776;23.112;2023-10-19T13:10:27;93636.66;;;19.15;59.27
52105;BME280;38103;42.776;23.112;2023-10-19T13:12:53;93628.72;;;19.10;59.38
52105;BME280;38103;42.776;23.112;2023-10-19T13:15:19;93618.81;;;19.10;58.77
52105;BME280;38103;42.776;23.112;2023-10-19T13:17:47;93618.81;;;19.10;58.90